Huntley, Illinois
Current Conditions -  °F | °C
As of 12:52 PM on Friday 21 Nov 2014 (Local Time) from KDPA Reporting Station
Clear Clear  
Wind Chill: 22°   Ceiling: Unl
Heat Index: 31°   Visibility: 10mi
Dew Point:   Wind: 12mph
Humidity: 28%   Direction: 170°S
Pressure: 30.37"   Gusts: NA
Location:  42.17°N, 88.43°W
Report Text: KDPA 211852Z 17010KT 10SM CLR M01/M17 A3037 RMK AO2 SLP296 T10061172
Loading
Personal Weather Stations






























Interactive Weather Map New forecast layout! Learn more

10-Day Weather Forecast

Advertisements
Track Severe Weather on mobile